createdAt,value
2022-10-21T00:00:59.906Z,992.24
2022-10-21T00:01:59.887Z,992.17
2022-10-21T00:02:59.864Z,992.08
2022-10-21T00:03:59.846Z,991.99
2022-10-21T00:06:53.903Z,991.90
2022-10-21T00:07:53.469Z,991.83
2022-10-21T00:08:53.281Z,991.77
2022-10-21T00:09:53.492Z,991.65
2022-10-21T00:10:53.390Z,991.70
2022-10-21T00:11:53.069Z,991.72
2022-10-21T00:12:53.059Z,991.76
2022-10-21T00:13:53.025Z,991.77
2022-10-21T00:14:56.340Z,991.77
2022-10-21T00:15:52.982Z,991.78
2022-10-21T00:16:52.990Z,991.74
2022-10-21T00:17:52.941Z,991.62
2022-10-21T00:18:52.924Z,991.70
2022-10-21T00:19:52.907Z,991.57
2022-10-21T00:20:52.881Z,991.55
2022-10-21T00:21:52.872Z,991.52
2022-10-21T00:22:52.832Z,991.46
2022-10-21T00:23:52.826Z,991.32
2022-10-21T00:24:52.796Z,991.30
2022-10-21T00:25:52.797Z,991.31
2022-10-21T00:26:52.765Z,991.30
2022-10-21T00:27:52.742Z,991.23
2022-10-21T00:28:52.735Z,991.22
2022-10-21T00:29:52.714Z,991.21
2022-10-21T00:30:52.669Z,991.16
2022-10-21T00:31:52.650Z,991.12
2022-10-21T00:32:52.643Z,991.08
2022-10-21T00:33:52.616Z,991.08
2022-10-21T00:34:52.592Z,991.00
2022-10-21T00:35:52.627Z,991.02
2022-10-21T00:36:52.555Z,991.07
2022-10-21T00:37:52.533Z,991.08
2022-10-21T00:38:52.512Z,991.10
2022-10-21T00:39:52.485Z,991.20
2022-10-21T00:40:52.477Z,991.18
2022-10-21T00:41:52.445Z,991.17
2022-10-21T00:42:52.453Z,991.10
2022-10-21T00:43:52.422Z,991.11
2022-10-21T00:44:52.385Z,991.16
2022-10-21T00:45:52.364Z,991.16
2022-10-21T00:46:52.355Z,991.18
2022-10-21T00:47:52.338Z,991.19
2022-10-21T00:48:52.306Z,991.24
2022-10-21T00:49:52.287Z,991.27
2022-10-21T00:50:52.273Z,991.29
2022-10-21T00:51:52.243Z,991.27
2022-10-21T00:52:52.228Z,991.31
2022-10-21T00:53:52.225Z,991.32
2022-10-21T00:54:52.179Z,991.31
2022-10-21T00:55:52.168Z,991.30
2022-10-21T00:57:52.144Z,991.30
2022-10-21T00:58:52.109Z,991.33
2022-10-21T00:59:52.095Z,991.38
2022-10-21T01:00:52.221Z,991.43
2022-10-21T01:01:52.062Z,991.41
2022-10-21T01:02:52.022Z,991.37
2022-10-21T01:03:51.998Z,991.38
2022-10-21T01:04:51.979Z,991.37
2022-10-21T01:05:51.974Z,991.34
2022-10-21T01:06:51.940Z,991.32
2022-10-21T01:07:51.922Z,991.32
2022-10-21T01:08:51.929Z,991.34
2022-10-21T01:09:51.873Z,991.38
2022-10-21T01:10:51.871Z,991.38
2022-10-21T01:11:51.848Z,991.33
2022-10-21T01:12:51.847Z,991.26
2022-10-21T01:13:51.816Z,991.07
2022-10-21T01:14:51.812Z,991.03
2022-10-21T01:15:51.760Z,991.02
2022-10-21T01:16:51.758Z,990.98
2022-10-21T01:17:52.232Z,990.91
2022-10-21T01:18:51.690Z,990.90
2022-10-21T01:19:51.672Z,990.93
2022-10-21T01:20:51.682Z,990.88
2022-10-21T01:21:51.645Z,990.95
2022-10-21T01:22:51.611Z,990.93
2022-10-21T01:23:51.596Z,990.65
2022-10-21T01:24:51.569Z,990.39
2022-10-21T01:25:51.556Z,990.23
2022-10-21T01:26:51.548Z,990.32
2022-10-21T01:27:51.505Z,990.45
2022-10-21T01:28:51.484Z,990.40
2022-10-21T01:29:51.468Z,990.29
2022-10-21T01:30:51.445Z,990.23
2022-10-21T01:31:51.430Z,990.19
2022-10-21T01:32:51.403Z,990.27
2022-10-21T01:33:51.390Z,990.34
2022-10-21T01:34:51.366Z,990.45
2022-10-21T01:35:51.344Z,990.52
2022-10-21T01:36:51.331Z,990.55
2022-10-21T01:37:51.343Z,990.52
2022-10-21T01:38:51.291Z,990.48
2022-10-21T01:39:51.264Z,990.43
2022-10-21T01:40:51.246Z,990.48
2022-10-21T01:41:51.215Z,990.49
2022-10-21T01:42:51.242Z,990.49
2022-10-21T01:43:51.187Z,990.56
2022-10-21T01:44:51.166Z,990.71
2022-10-21T01:45:51.135Z,990.79
2022-10-21T01:46:51.116Z,990.73
2022-10-21T01:47:51.093Z,990.63
2022-10-21T01:48:51.076Z,990.55
2022-10-21T01:50:51.040Z,990.59
2022-10-21T01:51:51.011Z,990.64
2022-10-21T01:52:50.992Z,990.63
2022-10-21T01:53:50.976Z,990.59
2022-10-21T01:54:50.963Z,990.54
2022-10-21T01:55:50.937Z,990.54
2022-10-21T01:56:50.911Z,990.57
2022-10-21T01:57:50.923Z,990.52
2022-10-21T01:58:50.872Z,990.51
2022-10-21T01:59:50.879Z,990.47
2022-10-21T02:00:50.909Z,990.45
2022-10-21T02:01:50.806Z,990.42
2022-10-21T02:02:50.784Z,990.41
2022-10-21T02:03:50.769Z,990.43
2022-10-21T02:04:50.753Z,990.45
2022-10-21T02:05:50.728Z,990.48
2022-10-21T02:06:50.717Z,990.50
2022-10-21T02:07:50.685Z,990.50
2022-10-21T02:08:50.708Z,990.53
2022-10-21T02:09:50.634Z,990.47
2022-10-21T02:10:50.618Z,990.43
2022-10-21T02:11:50.609Z,990.33
2022-10-21T02:12:50.586Z,990.24
2022-10-21T02:13:50.551Z,990.15
2022-10-21T02:14:50.587Z,990.07
2022-10-21T02:15:50.521Z,990.03
2022-10-21T02:16:50.482Z,990.12
2022-10-21T02:17:50.473Z,990.19
2022-10-21T02:18:50.453Z,990.22
2022-10-21T02:19:50.426Z,990.23
2022-10-21T02:20:50.415Z,990.23
2022-10-21T02:21:50.394Z,990.22
2022-10-21T02:22:50.358Z,990.20
2022-10-21T02:23:50.340Z,990.23
2022-10-21T02:24:50.319Z,990.21
2022-10-21T02:25:50.299Z,990.27
2022-10-21T02:26:50.281Z,990.28
2022-10-21T02:27:50.255Z,990.28
2022-10-21T02:28:50.287Z,990.24
2022-10-21T02:29:50.212Z,990.23
2022-10-21T02:30:50.198Z,990.17
2022-10-21T02:31:50.172Z,990.18
2022-10-21T02:32:50.156Z,990.17
2022-10-21T02:33:50.129Z,990.15
2022-10-21T02:34:50.114Z,990.17
2022-10-21T02:35:50.120Z,990.19
2022-10-21T02:36:50.099Z,990.17
2022-10-21T02:37:50.043Z,990.19
2022-10-21T02:38:50.031Z,990.20
2022-10-21T02:39:50.009Z,990.16
2022-10-21T02:40:49.985Z,990.12
2022-10-21T02:41:50.008Z,990.08
2022-10-21T02:42:49.936Z,990.02
2022-10-21T02:43:49.918Z,990.03
2022-10-21T02:44:49.929Z,990.05
2022-10-21T02:45:49.877Z,990.05
2022-10-21T02:46:49.852Z,990.03
2022-10-21T02:47:49.850Z,989.98
2022-10-21T02:48:49.816Z,989.98
2022-10-21T02:49:49.842Z,989.94
2022-10-21T02:50:49.774Z,989.96
2022-10-21T02:51:49.754Z,989.99
2022-10-21T02:52:49.735Z,989.97
2022-10-21T02:53:49.711Z,989.97
2022-10-21T02:54:49.684Z,990.00
2022-10-21T02:55:49.675Z,989.97
2022-10-21T02:56:49.669Z,989.96
2022-10-21T02:57:49.620Z,989.97
2022-10-21T02:58:49.607Z,990.01
2022-10-21T02:59:49.577Z,989.98
2022-10-21T03:00:49.641Z,989.99
2022-10-21T03:01:49.543Z,990.01
2022-10-21T03:02:49.515Z,990.01
2022-10-21T03:03:49.500Z,990.03
2022-10-21T03:04:49.471Z,989.98
2022-10-21T03:05:49.481Z,989.98
2022-10-21T03:06:49.430Z,989.99
2022-10-21T03:07:49.408Z,989.96
2022-10-21T03:08:49.400Z,989.99
2022-10-21T03:09:49.367Z,989.95
2022-10-21T03:10:52.957Z,989.93
2022-10-21T03:11:49.326Z,989.87
2022-10-21T03:12:49.295Z,989.86
2022-10-21T03:13:49.293Z,989.87
2022-10-21T03:14:49.303Z,989.86
2022-10-21T03:15:49.237Z,989.84
2022-10-21T03:16:49.226Z,989.80
2022-10-21T03:17:49.193Z,989.86
2022-10-21T03:18:49.196Z,989.83
2022-10-21T03:19:49.151Z,989.76
2022-10-21T03:20:49.146Z,989.76
2022-10-21T03:21:49.109Z,989.70
2022-10-21T03:22:49.089Z,989.64
2022-10-21T03:23:49.069Z,989.62
2022-10-21T03:24:49.064Z,989.60
2022-10-21T03:25:49.042Z,989.59
2022-10-21T03:26:48.999Z,989.54
2022-10-21T03:27:48.978Z,989.43
2022-10-21T03:28:48.957Z,989.45
2022-10-21T03:29:48.939Z,989.42
2022-10-21T03:30:48.924Z,989.42
2022-10-21T03:31:48.895Z,989.42
2022-10-21T03:32:48.869Z,989.43
2022-10-21T03:33:48.851Z,989.43
2022-10-21T03:34:48.845Z,989.41
2022-10-21T03:35:48.825Z,989.42
2022-10-21T03:36:48.791Z,989.41
2022-10-21T03:37:48.812Z,989.38
2022-10-21T03:38:48.739Z,989.41
2022-10-21T03:39:48.716Z,989.39
2022-10-21T03:40:48.701Z,989.41
2022-10-21T03:41:48.675Z,989.48
2022-10-21T03:42:48.651Z,989.50
2022-10-21T03:43:48.635Z,989.50
2022-10-21T03:44:48.614Z,989.52
2022-10-21T03:45:48.593Z,989.52
2022-10-21T03:46:48.572Z,989.49
2022-10-21T03:47:48.555Z,989.56
2022-10-21T03:48:48.517Z,989.53
2022-10-21T03:49:48.503Z,989.51
2022-10-21T03:50:48.479Z,989.51
2022-10-21T03:51:48.456Z,989.56
2022-10-21T03:52:48.504Z,989.56
2022-10-21T03:53:48.536Z,989.54
2022-10-21T03:54:48.395Z,989.51
2022-10-21T03:55:50.976Z,989.50
2022-10-21T03:56:48.353Z,989.50
2022-10-21T03:57:48.346Z,989.54
2022-10-21T03:58:48.307Z,989.56
2022-10-21T03:59:48.283Z,989.56
2022-10-21T04:00:48.264Z,989.59
2022-10-21T04:01:48.311Z,989.60
2022-10-21T04:02:48.235Z,989.59
2022-10-21T04:03:48.198Z,989.56
2022-10-21T04:04:48.171Z,989.57
2022-10-21T04:05:48.156Z,989.61
2022-10-21T04:06:48.140Z,989.58
2022-10-21T04:07:50.757Z,989.56
2022-10-21T04:08:48.150Z,989.58
2022-10-21T04:09:48.063Z,989.56
2022-10-21T04:10:48.079Z,989.53
2022-10-21T04:11:48.025Z,989.55
2022-10-21T04:12:48.052Z,989.55
2022-10-21T04:13:47.981Z,989.52
2022-10-21T04:14:47.954Z,989.53
2022-10-21T04:15:47.949Z,989.55
2022-10-21T04:16:48.121Z,989.57
2022-10-21T04:17:47.898Z,989.51
2022-10-21T04:18:47.894Z,989.49
2022-10-21T04:19:47.852Z,989.47
2022-10-21T04:20:47.829Z,989.48
2022-10-21T04:21:47.813Z,989.42
2022-10-21T04:22:47.787Z,989.39
2022-10-21T04:23:47.757Z,989.35
2022-10-21T04:24:47.737Z,989.33
2022-10-21T04:25:47.715Z,989.33
2022-10-21T04:26:47.692Z,989.33
2022-10-21T04:27:47.672Z,989.28
2022-10-21T04:28:47.668Z,989.33
2022-10-21T04:29:47.628Z,989.29
2022-10-21T04:30:47.661Z,989.31
2022-10-21T04:31:47.632Z,989.26
2022-10-21T04:32:47.560Z,989.31
2022-10-21T04:33:47.547Z,989.28
2022-10-21T04:34:47.521Z,989.24
2022-10-21T04:35:47.495Z,989.27
2022-10-21T04:36:47.478Z,989.29
2022-10-21T04:37:47.458Z,989.28
2022-10-21T04:38:47.434Z,989.28
2022-10-21T04:39:47.431Z,989.27
2022-10-21T04:40:47.419Z,989.28
2022-10-21T04:41:47.366Z,989.27
2022-10-21T04:42:47.349Z,989.22
2022-10-21T04:43:47.326Z,989.22
2022-10-21T04:44:47.314Z,989.14
2022-10-21T04:45:47.288Z,989.16
2022-10-21T04:46:47.254Z,989.15
2022-10-21T04:47:47.232Z,989.15
2022-10-21T04:48:47.234Z,989.15
2022-10-21T04:49:47.222Z,989.19
2022-10-21T04:50:47.175Z,989.17
2022-10-21T04:51:47.151Z,989.16
2022-10-21T04:52:47.160Z,989.14
2022-10-21T04:53:47.106Z,989.11
2022-10-21T04:54:47.088Z,989.13
2022-10-21T04:55:47.068Z,989.14
2022-10-21T04:56:47.044Z,989.15
2022-10-21T04:57:47.022Z,989.22
2022-10-21T04:58:46.999Z,989.25
2022-10-21T04:59:46.975Z,989.28
2022-10-21T05:00:46.985Z,989.28
2022-10-21T05:01:46.970Z,989.22
2022-10-21T05:02:46.913Z,989.20
2022-10-21T05:03:46.900Z,989.13
2022-10-21T05:04:46.860Z,989.11
2022-10-21T05:05:46.841Z,989.07
2022-10-21T05:06:46.834Z,989.03
2022-10-21T05:07:46.802Z,989.03
2022-10-21T05:08:46.803Z,989.05
2022-10-21T05:09:46.762Z,988.99
2022-10-21T05:10:46.735Z,988.99
2022-10-21T05:11:46.718Z,988.99
2022-10-21T05:12:46.687Z,989.00
2022-10-21T05:13:46.674Z,988.98
2022-10-21T05:14:46.645Z,988.98
2022-10-21T05:15:46.622Z,989.01
2022-10-21T05:16:46.607Z,989.02
2022-10-21T05:17:46.595Z,989.00
2022-10-21T05:18:46.556Z,989.01
2022-10-21T05:19:46.535Z,988.97
2022-10-21T05:20:46.515Z,988.98
2022-10-21T05:21:46.520Z,988.96
2022-10-21T05:22:46.494Z,988.93
2022-10-21T05:23:46.504Z,988.97
2022-10-21T05:24:46.433Z,988.89
2022-10-21T05:25:46.425Z,988.90
2022-10-21T05:26:46.406Z,988.86
2022-10-21T05:27:46.362Z,988.80
2022-10-21T05:28:46.346Z,988.80
2022-10-21T05:29:46.361Z,988.72
2022-10-21T05:30:46.299Z,988.76
2022-10-21T05:31:46.299Z,988.73
2022-10-21T05:32:46.258Z,988.71
2022-10-21T05:33:46.255Z,988.68
2022-10-21T05:34:46.214Z,988.68
2022-10-21T05:35:46.194Z,988.63
2022-10-21T05:36:46.175Z,988.64
2022-10-21T05:37:46.146Z,988.60
2022-10-21T05:38:46.172Z,988.60
2022-10-21T05:39:46.129Z,988.58
2022-10-21T05:40:46.086Z,988.59
2022-10-21T05:41:48.008Z,988.58
2022-10-21T05:42:46.042Z,988.57
2022-10-21T05:43:46.052Z,988.60
2022-10-21T05:44:46.000Z,988.58
2022-10-21T05:45:45.972Z,988.59
2022-10-21T05:46:45.953Z,988.59
2022-10-21T05:47:45.934Z,988.59
2022-10-21T05:48:45.916Z,988.57
2022-10-21T05:49:45.885Z,988.60
2022-10-21T05:50:45.892Z,988.54
2022-10-21T05:51:45.847Z,988.57
2022-10-21T05:52:45.827Z,988.57
2022-10-21T05:53:45.810Z,988.55
2022-10-21T05:54:45.818Z,988.55
2022-10-21T05:55:45.772Z,988.56
2022-10-21T05:56:45.740Z,988.54
2022-10-21T05:57:45.767Z,988.58
2022-10-21T05:58:45.698Z,988.61
2022-10-21T05:59:45.680Z,988.66
2022-10-21T06:00:45.738Z,988.66
2022-10-21T06:01:45.625Z,988.68
2022-10-21T06:02:45.632Z,988.63
2022-10-21T06:03:45.591Z,988.62
2022-10-21T06:04:45.564Z,988.58
2022-10-21T06:05:45.569Z,988.57
2022-10-21T06:06:45.575Z,988.60
2022-10-21T06:07:45.502Z,988.67
2022-10-21T06:08:45.546Z,988.68
2022-10-21T06:09:45.452Z,988.74
2022-10-21T06:10:45.432Z,988.76
2022-10-21T06:11:45.411Z,988.74
2022-10-21T06:12:45.398Z,988.81
2022-10-21T06:13:45.374Z,988.91
2022-10-21T06:14:45.360Z,988.98
2022-10-21T06:15:48.763Z,988.99
2022-10-21T06:16:45.313Z,988.98
2022-10-21T06:17:45.293Z,989.04
2022-10-21T06:18:45.335Z,989.00
2022-10-21T06:19:47.477Z,988.98
2022-10-21T06:20:45.275Z,988.98
2022-10-21T06:21:45.313Z,988.97
2022-10-21T06:22:45.225Z,988.99
2022-10-21T06:23:45.199Z,989.00
2022-10-21T06:24:45.190Z,988.94
2022-10-21T06:25:45.105Z,988.95
2022-10-21T06:26:45.088Z,988.98
2022-10-21T06:27:45.078Z,988.97
2022-10-21T06:28:45.055Z,988.97
2022-10-21T06:29:45.025Z,988.93
2022-10-21T06:30:45.033Z,988.93
2022-10-21T06:31:44.973Z,988.86
2022-10-21T06:32:44.976Z,988.86
2022-10-21T06:33:45.506Z,988.87
2022-10-21T06:34:44.941Z,988.92
2022-10-21T06:35:44.895Z,988.92
2022-10-21T06:36:44.915Z,988.96
2022-10-21T06:37:44.866Z,988.96
2022-10-21T06:38:44.825Z,988.96
2022-10-21T06:39:44.813Z,988.97
2022-10-21T06:40:44.785Z,988.95
2022-10-21T06:41:44.792Z,988.94
2022-10-21T06:42:44.748Z,988.96
2022-10-21T06:43:44.740Z,988.97
2022-10-21T06:44:44.714Z,988.99
2022-10-21T06:45:44.679Z,988.99
2022-10-21T06:46:44.671Z,989.01
2022-10-21T06:47:44.653Z,989.02
2022-10-21T06:48:44.626Z,989.00
2022-10-21T06:49:44.598Z,989.03
2022-10-21T06:50:44.575Z,989.00
2022-10-21T06:51:44.578Z,989.01
2022-10-21T06:52:44.530Z,989.04
2022-10-21T06:53:44.503Z,989.04
2022-10-21T06:54:44.487Z,989.08
2022-10-21T06:55:44.465Z,989.12
2022-10-21T06:56:44.447Z,989.14
2022-10-21T06:57:44.420Z,989.13
2022-10-21T06:58:44.402Z,989.19
2022-10-21T06:59:44.383Z,989.19
2022-10-21T07:00:44.374Z,989.19
2022-10-21T07:02:00.867Z,989.17
2022-10-21T07:02:44.325Z,989.25
2022-10-21T07:03:44.296Z,989.22
2022-10-21T07:04:44.284Z,989.24
2022-10-21T07:05:44.259Z,989.30
2022-10-21T07:06:44.262Z,989.29
2022-10-21T07:07:45.018Z,989.26
2022-10-21T07:08:47.143Z,989.27
2022-10-21T07:09:44.282Z,989.29
2022-10-21T07:10:44.169Z,989.34
2022-10-21T07:11:44.135Z,989.32
2022-10-21T07:12:44.125Z,989.37
2022-10-21T07:13:44.097Z,989.38
2022-10-21T07:14:44.073Z,989.38
2022-10-21T07:15:44.061Z,989.43
2022-10-21T07:16:44.025Z,989.44
2022-10-21T07:17:44.009Z,989.45
2022-10-21T07:18:44.007Z,989.48
2022-10-21T07:19:43.971Z,989.47
2022-10-21T07:20:43.941Z,989.46
2022-10-21T07:21:43.927Z,989.49
2022-10-21T07:22:43.907Z,989.49
2022-10-21T07:23:43.900Z,989.54
2022-10-21T07:24:43.872Z,989.53
2022-10-21T07:25:43.844Z,989.56
2022-10-21T07:26:43.855Z,989.58
2022-10-21T07:27:47.356Z,989.60
2022-10-21T07:28:43.778Z,989.59
2022-10-21T07:29:43.779Z,989.62
2022-10-21T07:30:43.736Z,989.63
2022-10-21T07:31:43.720Z,989.64
2022-10-21T07:32:43.694Z,989.66
2022-10-21T07:33:43.678Z,989.66
2022-10-21T07:34:43.655Z,989.65
2022-10-21T07:35:43.632Z,989.66
2022-10-21T07:36:43.618Z,989.65
2022-10-21T07:37:43.610Z,989.61
2022-10-21T07:38:43.570Z,989.62
2022-10-21T07:39:43.554Z,989.57
2022-10-21T07:40:43.535Z,989.62
2022-10-21T07:41:43.517Z,989.62
2022-10-21T07:42:43.488Z,989.66
2022-10-21T07:43:43.474Z,989.66
2022-10-21T07:44:43.468Z,989.68
2022-10-21T07:45:43.429Z,989.69
2022-10-21T07:46:43.424Z,989.68
2022-10-21T07:47:43.409Z,989.68
2022-10-21T07:48:43.370Z,989.68
2022-10-21T07:49:43.345Z,989.71
2022-10-21T07:50:43.339Z,989.76
2022-10-21T07:51:43.310Z,989.75
2022-10-21T07:52:48.379Z,989.74
2022-10-21T07:53:43.275Z,989.72
2022-10-21T07:54:43.248Z,989.64
2022-10-21T07:55:43.230Z,989.62
2022-10-21T07:56:43.203Z,989.62
2022-10-21T07:57:43.177Z,989.64
2022-10-21T07:58:43.169Z,989.67
2022-10-21T07:59:43.140Z,989.68
2022-10-21T08:00:43.175Z,989.65
2022-10-21T08:01:43.198Z,989.69
2022-10-21T08:02:43.092Z,989.66
2022-10-21T08:03:43.063Z,989.68
2022-10-21T08:04:43.034Z,989.64
2022-10-21T08:05:43.020Z,989.58
2022-10-21T08:06:43.000Z,989.62
2022-10-21T08:07:43.020Z,989.59
2022-10-21T08:08:42.992Z,989.59
2022-10-21T08:09:42.926Z,989.59
2022-10-21T08:10:42.953Z,989.62
2022-10-21T08:11:42.896Z,989.58
2022-10-21T08:12:42.875Z,989.66
2022-10-21T08:13:42.853Z,989.62
2022-10-21T08:14:42.835Z,989.61
2022-10-21T08:15:42.805Z,989.63
2022-10-21T08:16:42.789Z,989.66
2022-10-21T08:17:42.762Z,989.66
2022-10-21T08:18:42.745Z,989.64
2022-10-21T08:19:42.844Z,989.67
2022-10-21T08:20:42.711Z,989.65
2022-10-21T08:21:42.690Z,989.66
2022-10-21T08:22:42.680Z,989.67
2022-10-21T08:23:42.660Z,989.65
2022-10-21T08:24:42.630Z,989.67
2022-10-21T08:25:42.603Z,989.62
2022-10-21T08:26:42.584Z,989.67
2022-10-21T08:27:42.565Z,989.65
2022-10-21T08:28:42.549Z,989.59
2022-10-21T08:29:42.527Z,989.68
2022-10-21T08:30:42.496Z,989.62
2022-10-21T08:31:42.488Z,989.68
2022-10-21T08:32:42.495Z,989.67
2022-10-21T08:33:42.451Z,989.66
2022-10-21T08:34:42.423Z,989.67
2022-10-21T08:35:42.398Z,989.71
2022-10-21T08:36:42.400Z,989.67
2022-10-21T08:37:42.363Z,989.70
2022-10-21T08:38:42.335Z,989.71
2022-10-21T08:39:42.317Z,989.71
2022-10-21T08:40:42.300Z,989.69
2022-10-21T08:41:42.277Z,989.69
2022-10-21T08:42:42.259Z,989.69
2022-10-21T08:43:42.239Z,989.73
2022-10-21T08:44:42.220Z,989.69
2022-10-21T08:45:42.198Z,989.66
2022-10-21T08:46:42.172Z,989.71
2022-10-21T08:47:42.163Z,989.72
2022-10-21T08:48:42.184Z,989.72
2022-10-21T08:49:42.123Z,989.69
2022-10-21T08:50:42.101Z,989.69
2022-10-21T08:51:42.078Z,989.66
2022-10-21T08:52:42.062Z,989.65
2022-10-21T08:53:42.036Z,989.62
2022-10-21T08:54:42.010Z,989.65
2022-10-21T08:55:42.008Z,989.60
2022-10-21T08:56:41.980Z,989.66
2022-10-21T08:57:42.159Z,989.65
2022-10-21T08:58:41.937Z,989.63
2022-10-21T08:59:41.913Z,989.64
2022-10-21T09:00:41.894Z,989.65
2022-10-21T09:01:41.881Z,989.62
2022-10-21T09:02:41.919Z,989.62
2022-10-21T09:03:41.837Z,989.61
2022-10-21T09:04:41.823Z,989.53
2022-10-21T09:05:41.792Z,989.58
2022-10-21T09:06:41.769Z,989.57
2022-10-21T09:07:42.058Z,989.52
2022-10-21T09:08:41.796Z,989.47
2022-10-21T09:09:41.717Z,989.48
2022-10-21T09:10:41.689Z,989.49
2022-10-21T09:11:41.671Z,989.50
2022-10-21T09:12:41.651Z,989.51
2022-10-21T09:13:41.631Z,989.54
2022-10-21T09:14:41.611Z,989.55
2022-10-21T09:15:41.712Z,989.51
2022-10-21T09:16:41.573Z,989.44
2022-10-21T09:17:41.791Z,989.46
2022-10-21T09:18:41.618Z,989.43
2022-10-21T09:19:41.541Z,989.41
2022-10-21T09:20:41.494Z,989.43
2022-10-21T09:21:41.477Z,989.50
2022-10-21T09:22:41.460Z,989.63
2022-10-21T09:23:41.435Z,989.63
2022-10-21T09:24:41.414Z,989.66
2022-10-21T09:25:41.403Z,989.72
2022-10-21T09:26:41.379Z,989.77
2022-10-21T09:27:55.155Z,989.73
2022-10-21T09:28:41.353Z,989.77
2022-10-21T09:29:41.320Z,989.78
2022-10-21T09:30:41.300Z,989.80
2022-10-21T09:31:41.279Z,989.84
2022-10-21T09:32:41.252Z,989.85
2022-10-21T09:33:41.243Z,989.88
2022-10-21T09:34:41.225Z,989.85
2022-10-21T09:35:41.196Z,989.82
2022-10-21T09:36:41.190Z,989.82
2022-10-21T09:37:41.699Z,989.81
2022-10-21T09:38:41.156Z,989.81
2022-10-21T09:39:41.133Z,989.84
2022-10-21T09:40:41.103Z,989.80
2022-10-21T09:41:41.080Z,989.83
2022-10-21T09:42:48.635Z,989.81
2022-10-21T09:43:41.042Z,989.78
2022-10-21T09:44:41.020Z,989.78
2022-10-21T09:45:41.009Z,989.78
2022-10-21T09:46:40.980Z,989.77
2022-10-21T09:47:40.971Z,989.76
2022-10-21T09:48:53.951Z,989.74
2022-10-21T09:50:06.022Z,989.76
2022-10-21T09:50:40.912Z,989.77
2022-10-21T09:51:40.888Z,989.77
2022-10-21T09:52:41.312Z,989.74
2022-10-21T09:53:45.912Z,989.71
2022-10-21T09:54:40.827Z,989.71
2022-10-21T09:55:40.815Z,989.77
2022-10-21T09:56:40.786Z,989.75
2022-10-21T09:57:40.768Z,989.72
2022-10-21T09:58:40.745Z,989.70
2022-10-21T09:59:40.829Z,989.68
2022-10-21T10:00:40.713Z,989.70
2022-10-21T10:01:40.712Z,989.68
2022-10-21T10:02:40.793Z,989.66
2022-10-21T10:03:40.658Z,989.68
2022-10-21T10:04:40.640Z,989.64
2022-10-21T10:05:40.614Z,989.65
2022-10-21T10:06:40.617Z,989.67
2022-10-21T10:07:40.581Z,989.66
2022-10-21T10:08:40.628Z,989.72
2022-10-21T10:09:40.540Z,989.69
2022-10-21T10:10:40.511Z,989.69
2022-10-21T10:11:40.497Z,989.70
2022-10-21T10:12:40.807Z,989.69
2022-10-21T10:13:40.465Z,989.72
2022-10-21T10:14:40.455Z,989.68
2022-10-21T10:15:40.429Z,989.66
2022-10-21T10:16:40.413Z,989.68
2022-10-21T10:17:40.382Z,989.74
2022-10-21T10:18:40.369Z,989.68
2022-10-21T10:19:40.353Z,989.68
2022-10-21T10:20:40.327Z,989.70
2022-10-21T10:21:40.306Z,989.69
2022-10-21T10:22:40.754Z,989.69
2022-10-21T10:23:40.267Z,989.75
2022-10-21T10:24:40.249Z,989.76
2022-10-21T10:25:40.233Z,989.78
2022-10-21T10:26:40.359Z,989.75
2022-10-21T10:27:40.202Z,989.76
2022-10-21T10:29:40.152Z,989.85
2022-10-21T10:30:40.127Z,989.86
2022-10-21T10:31:40.119Z,989.83
2022-10-21T10:32:40.432Z,989.88
2022-10-21T10:33:40.117Z,989.89
2022-10-21T10:34:40.053Z,989.96
2022-10-21T10:35:40.035Z,989.94
2022-10-21T10:36:40.015Z,990.06
2022-10-21T10:37:40.346Z,990.12
2022-10-21T10:38:39.978Z,990.19
2022-10-21T10:39:39.961Z,990.22
2022-10-21T10:40:39.937Z,990.25
2022-10-21T10:41:39.918Z,990.22
2022-10-21T10:42:40.147Z,990.23
2022-10-21T10:43:39.963Z,990.17
2022-10-21T10:44:39.852Z,990.20
2022-10-21T10:45:39.854Z,990.22
2022-10-21T10:46:39.877Z,990.27
2022-10-21T10:47:40.049Z,990.24
2022-10-21T10:48:39.774Z,990.18
2022-10-21T10:49:39.754Z,990.20
2022-10-21T10:50:39.735Z,990.26
2022-10-21T10:51:39.712Z,990.23
2022-10-21T10:52:39.699Z,990.21
2022-10-21T10:53:39.680Z,990.24
2022-10-21T10:54:39.660Z,990.23
2022-10-21T10:55:39.688Z,990.22
2022-10-21T10:56:39.649Z,990.25
2022-10-21T10:57:44.577Z,990.29
2022-10-21T10:58:39.582Z,990.25
2022-10-21T10:59:39.643Z,990.27
2022-10-21T11:00:39.566Z,990.28
2022-10-21T11:01:39.563Z,990.25
2022-10-21T11:02:39.522Z,990.30
2022-10-21T11:03:41.341Z,990.26
2022-10-21T11:04:39.458Z,990.26
2022-10-21T11:05:39.459Z,990.30
2022-10-21T11:06:39.430Z,990.29
2022-10-21T11:07:39.567Z,990.27
2022-10-21T11:08:39.426Z,990.31
2022-10-21T11:09:39.363Z,990.25
2022-10-21T11:10:39.353Z,990.25
2022-10-21T11:11:39.347Z,990.30
2022-10-21T11:12:39.364Z,990.30
2022-10-21T11:13:42.126Z,990.31
2022-10-21T11:14:39.274Z,990.23
2022-10-21T11:15:39.347Z,990.27
2022-10-21T11:16:50.530Z,990.27
2022-10-21T11:17:39.525Z,990.30
2022-10-21T11:18:39.194Z,990.25
2022-10-21T11:19:39.191Z,990.25
2022-10-21T11:20:39.182Z,990.21
2022-10-21T11:21:39.147Z,990.21
2022-10-21T11:22:39.123Z,990.24
2022-10-21T11:23:39.110Z,990.20
2022-10-21T11:24:39.090Z,990.19
2022-10-21T11:25:39.064Z,990.16
2022-10-21T11:26:39.070Z,990.15
2022-10-21T11:27:39.372Z,990.12
2022-10-21T11:28:39.024Z,990.06
2022-10-21T11:29:38.993Z,990.07
2022-10-21T11:30:38.974Z,990.02
2022-10-21T11:31:48.765Z,990.02
2022-10-21T11:32:38.936Z,989.99
2022-10-21T11:33:38.921Z,989.94
2022-10-21T11:34:38.916Z,989.92
2022-10-21T11:35:38.891Z,989.89
2022-10-21T11:36:38.872Z,989.90
2022-10-21T11:37:39.066Z,989.89
2022-10-21T11:38:38.862Z,989.91
2022-10-21T11:39:38.848Z,989.90
2022-10-21T11:40:38.809Z,989.93
2022-10-21T11:41:38.844Z,989.89
2022-10-21T11:42:39.027Z,989.89
2022-10-21T11:43:38.758Z,989.89
2022-10-21T11:44:38.775Z,989.84
2022-10-21T11:45:38.712Z,989.80
2022-10-21T11:46:38.688Z,989.81
2022-10-21T11:47:38.771Z,989.83
2022-10-21T11:48:38.662Z,989.88
2022-10-21T11:49:38.636Z,989.92
2022-10-21T11:50:38.621Z,989.93
2022-10-21T11:51:38.608Z,989.99
2022-10-21T11:52:39.002Z,990.03
2022-10-21T11:53:38.588Z,990.08
2022-10-21T11:54:45.525Z,990.09
2022-10-21T11:55:38.537Z,990.09
2022-10-21T11:56:39.020Z,990.02
2022-10-21T11:57:38.535Z,989.87
2022-10-21T11:58:38.517Z,989.87
2022-10-21T11:59:38.500Z,989.90
2022-10-21T12:00:38.453Z,989.94
2022-10-21T12:01:38.442Z,989.99
2022-10-21T12:02:38.732Z,990.03
2022-10-21T12:03:38.499Z,990.01
2022-10-21T12:04:38.394Z,990.05
2022-10-21T12:05:38.411Z,990.06
2022-10-21T12:06:38.364Z,990.13
2022-10-21T12:07:38.344Z,990.16
2022-10-21T12:08:41.330Z,990.15
2022-10-21T12:09:38.315Z,990.24
2022-10-21T12:10:38.285Z,990.27
2022-10-21T12:11:38.271Z,990.23
2022-10-21T12:12:38.560Z,990.34
2022-10-21T12:13:38.242Z,990.34
2022-10-21T12:14:38.229Z,990.36
2022-10-21T12:15:38.208Z,990.36
2022-10-21T12:16:38.194Z,990.28
2022-10-21T12:17:38.202Z,990.28
2022-10-21T12:18:38.172Z,990.31
2022-10-21T12:19:38.241Z,990.21
2022-10-21T12:20:38.160Z,990.27
2022-10-21T12:21:38.124Z,990.33
2022-10-21T12:22:38.406Z,990.31
2022-10-21T12:23:38.100Z,990.33
2022-10-21T12:24:38.096Z,990.34
2022-10-21T12:25:38.082Z,990.34
2022-10-21T12:27:38.314Z,990.33
2022-10-21T12:28:38.020Z,990.33
2022-10-21T12:29:38.007Z,990.32
2022-10-21T12:30:37.995Z,990.34
2022-10-21T12:31:37.999Z,990.32
2022-10-21T12:32:38.001Z,990.34
2022-10-21T12:33:37.952Z,990.31
2022-10-21T12:34:37.949Z,990.35